sensor_id;sensor_type;location;lat;lon;timestamp;P1;durP1;ratioP1;P2;durP2;ratioP2
10275;SDS011;5183;51.190;6.820;2022-12-07T00:01:22;45.17;;;33.57;;
10275;SDS011;5183;51.190;6.820;2022-12-07T00:03:51;45.13;;;34.53;;
10275;SDS011;5183;51.190;6.820;2022-12-07T00:06:19;46.57;;;36.40;;
10275;SDS011;5183;51.190;6.820;2022-12-07T00:08:47;50.03;;;36.97;;
10275;SDS011;5183;51.190;6.820;2022-12-07T00:11:16;51.90;;;36.17;;
10275;SDS011;5183;51.190;6.820;2022-12-07T00:13:45;50.63;;;37.87;;
10275;SDS011;5183;51.190;6.820;2022-12-07T00:16:13;48.00;;;37.33;;
10275;SDS011;5183;51.190;6.820;2022-12-07T00:18:41;48.50;;;37.27;;
10275;SDS011;5183;51.190;6.820;2022-12-07T00:21:10;51.40;;;36.53;;
10275;SDS011;5183;51.190;6.820;2022-12-07T00:23:38;53.70;;;38.77;;
10275;SDS011;5183;51.190;6.820;2022-12-07T00:26:06;58.03;;;40.63;;
10275;SDS011;5183;51.190;6.820;2022-12-07T00:28:35;53.57;;;40.47;;
10275;SDS011;5183;51.190;6.820;2022-12-07T00:31:03;53.07;;;40.43;;
10275;SDS011;5183;51.190;6.820;2022-12-07T00:33:31;57.90;;;40.70;;
10275;SDS011;5183;51.190;6.820;2022-12-07T00:35:58;53.50;;;40.37;;
10275;SDS011;5183;51.190;6.820;2022-12-07T00:38:27;58.27;;;40.50;;
10275;SDS011;5183;51.190;6.820;2022-12-07T00:40:55;53.37;;;39.03;;
10275;SDS011;5183;51.190;6.820;2022-12-07T00:43:23;53.53;;;40.70;;
10275;SDS011;5183;51.190;6.820;2022-12-07T00:45:51;57.27;;;41.37;;
10275;SDS011;5183;51.190;6.820;2022-12-07T00:48:18;53.73;;;39.63;;
10275;SDS011;5183;51.190;6.820;2022-12-07T00:50:45;52.73;;;39.73;;
10275;SDS011;5183;51.190;6.820;2022-12-07T00:53:12;55.73;;;41.93;;
10275;SDS011;5183;51.190;6.820;2022-12-07T00:55:39;53.70;;;41.50;;
10275;SDS011;5183;51.190;6.820;2022-12-07T00:58:06;52.67;;;40.37;;
10275;SDS011;5183;51.190;6.820;2022-12-07T01:00:34;55.70;;;40.27;;
10275;SDS011;5183;51.190;6.820;2022-12-07T01:03:04;54.20;;;40.67;;
10275;SDS011;5183;51.190;6.820;2022-12-07T01:05:32;50.40;;;39.30;;
10275;SDS011;5183;51.190;6.820;2022-12-07T01:07:59;50.70;;;38.87;;
10275;SDS011;5183;51.190;6.820;2022-12-07T01:10:26;49.67;;;38.77;;
10275;SDS011;5183;51.190;6.820;2022-12-07T01:12:55;52.37;;;40.00;;
10275;SDS011;5183;51.190;6.820;2022-12-07T01:15:22;50.77;;;39.60;;
10275;SDS011;5183;51.190;6.820;2022-12-07T01:17:49;54.53;;;39.03;;
10275;SDS011;5183;51.190;6.820;2022-12-07T01:20:17;55.30;;;39.70;;
10275;SDS011;5183;51.190;6.820;2022-12-07T01:22:44;54.53;;;41.07;;
10275;SDS011;5183;51.190;6.820;2022-12-07T01:25:11;52.57;;;37.53;;
10275;SDS011;5183;51.190;6.820;2022-12-07T01:27:38;51.90;;;40.23;;
10275;SDS011;5183;51.190;6.820;2022-12-07T01:30:05;53.10;;;39.30;;
10275;SDS011;5183;51.190;6.820;2022-12-07T01:32:33;49.60;;;38.90;;
10275;SDS011;5183;51.190;6.820;2022-12-07T01:35:00;53.60;;;40.07;;
10275;SDS011;5183;51.190;6.820;2022-12-07T01:37:28;52.03;;;37.97;;
10275;SDS011;5183;51.190;6.820;2022-12-07T01:40:01;51.47;;;39.13;;
10275;SDS011;5183;51.190;6.820;2022-12-07T01:42:28;50.17;;;38.83;;
10275;SDS011;5183;51.190;6.820;2022-12-07T01:48:05;51.03;;;38.37;;
10275;SDS011;5183;51.190;6.820;2022-12-07T01:50:33;52.37;;;39.03;;
10275;SDS011;5183;51.190;6.820;2022-12-07T01:53:02;50.23;;;38.90;;
10275;SDS011;5183;51.190;6.820;2022-12-07T01:55:31;49.10;;;37.50;;
10275;SDS011;5183;51.190;6.820;2022-12-07T01:57:58;49.33;;;37.43;;
10275;SDS011;5183;51.190;6.820;2022-12-07T02:00:25;49.03;;;37.10;;
10275;SDS011;5183;51.190;6.820;2022-12-07T02:02:53;47.70;;;36.77;;
10275;SDS011;5183;51.190;6.820;2022-12-07T02:05:22;49.40;;;37.63;;
10275;SDS011;5183;51.190;6.820;2022-12-07T02:07:51;48.47;;;37.67;;
10275;SDS011;5183;51.190;6.820;2022-12-07T02:10:23;51.67;;;37.70;;
10275;SDS011;5183;51.190;6.820;2022-12-07T02:12:52;50.53;;;39.40;;
10275;SDS011;5183;51.190;6.820;2022-12-07T02:15:24;49.57;;;37.73;;
10275;SDS011;5183;51.190;6.820;2022-12-07T02:17:55;49.00;;;39.17;;
10275;SDS011;5183;51.190;6.820;2022-12-07T02:20:29;53.63;;;38.43;;
10275;SDS011;5183;51.190;6.820;2022-12-07T02:23:14;53.20;;;39.67;;
10275;SDS011;5183;51.190;6.820;2022-12-07T02:26:02;49.93;;;38.27;;
10275;SDS011;5183;51.190;6.820;2022-12-07T02:28:56;52.70;;;39.03;;
10275;SDS011;5183;51.190;6.820;2022-12-07T02:31:40;48.63;;;37.73;;
10275;SDS011;5183;51.190;6.820;2022-12-07T02:34:12;49.77;;;39.67;;
10275;SDS011;5183;51.190;6.820;2022-12-07T02:36:46;45.70;;;37.17;;
10275;SDS011;5183;51.190;6.820;2022-12-07T02:39:20;49.47;;;38.93;;
10275;SDS011;5183;51.190;6.820;2022-12-07T02:41:54;50.63;;;39.13;;
10275;SDS011;5183;51.190;6.820;2022-12-07T02:44:25;50.67;;;38.70;;
10275;SDS011;5183;51.190;6.820;2022-12-07T02:46:55;51.50;;;38.20;;
10275;SDS011;5183;51.190;6.820;2022-12-07T02:49:25;48.47;;;38.07;;
10275;SDS011;5183;51.190;6.820;2022-12-07T02:51:54;50.53;;;39.03;;
10275;SDS011;5183;51.190;6.820;2022-12-07T02:54:21;47.17;;;39.60;;
10275;SDS011;5183;51.190;6.820;2022-12-07T02:56:48;51.60;;;39.77;;
10275;SDS011;5183;51.190;6.820;2022-12-07T02:59:22;51.77;;;39.30;;
10275;SDS011;5183;51.190;6.820;2022-12-07T03:02:00;51.30;;;40.03;;
10275;SDS011;5183;51.190;6.820;2022-12-07T03:04:40;54.80;;;40.10;;
10275;SDS011;5183;51.190;6.820;2022-12-07T03:07:15;51.63;;;37.93;;
10275;SDS011;5183;51.190;6.820;2022-12-07T03:09:52;50.10;;;40.47;;
10275;SDS011;5183;51.190;6.820;2022-12-07T03:12:27;49.60;;;39.57;;
10275;SDS011;5183;51.190;6.820;2022-12-07T03:15:00;50.37;;;39.43;;
10275;SDS011;5183;51.190;6.820;2022-12-07T03:17:31;49.30;;;37.93;;
10275;SDS011;5183;51.190;6.820;2022-12-07T03:20:03;47.00;;;37.63;;
10275;SDS011;5183;51.190;6.820;2022-12-07T03:22:33;46.73;;;38.23;;
10275;SDS011;5183;51.190;6.820;2022-12-07T03:25:03;49.63;;;38.83;;
10275;SDS011;5183;51.190;6.820;2022-12-07T03:27:33;48.77;;;39.37;;
10275;SDS011;5183;51.190;6.820;2022-12-07T03:30:05;50.60;;;39.10;;
10275;SDS011;5183;51.190;6.820;2022-12-07T03:32:35;49.37;;;39.03;;
10275;SDS011;5183;51.190;6.820;2022-12-07T03:35:05;49.73;;;39.13;;
10275;SDS011;5183;51.190;6.820;2022-12-07T03:37:37;48.67;;;39.03;;
10275;SDS011;5183;51.190;6.820;2022-12-07T03:40:10;50.20;;;39.80;;
10275;SDS011;5183;51.190;6.820;2022-12-07T03:42:42;44.17;;;34.73;;
10275;SDS011;5183;51.190;6.820;2022-12-07T03:45:11;47.63;;;38.33;;
10275;SDS011;5183;51.190;6.820;2022-12-07T03:47:41;50.43;;;38.40;;
10275;SDS011;5183;51.190;6.820;2022-12-07T03:50:14;48.43;;;39.10;;
10275;SDS011;5183;51.190;6.820;2022-12-07T03:52:48;45.23;;;36.83;;
10275;SDS011;5183;51.190;6.820;2022-12-07T03:55:22;48.87;;;37.40;;
10275;SDS011;5183;51.190;6.820;2022-12-07T03:57:56;51.47;;;38.30;;
10275;SDS011;5183;51.190;6.820;2022-12-07T04:00:30;50.13;;;37.87;;
10275;SDS011;5183;51.190;6.820;2022-12-07T04:02:57;47.57;;;35.93;;
10275;SDS011;5183;51.190;6.820;2022-12-07T04:05:24;45.97;;;35.77;;
10275;SDS011;5183;51.190;6.820;2022-12-07T04:07:52;45.87;;;36.50;;
10275;SDS011;5183;51.190;6.820;2022-12-07T04:10:18;46.90;;;36.10;;
10275;SDS011;5183;51.190;6.820;2022-12-07T04:12:45;45.47;;;35.10;;
10275;SDS011;5183;51.190;6.820;2022-12-07T04:15:12;46.20;;;36.33;;
10275;SDS011;5183;51.190;6.820;2022-12-07T04:17:40;47.93;;;37.53;;
10275;SDS011;5183;51.190;6.820;2022-12-07T04:20:08;47.17;;;38.73;;
10275;SDS011;5183;51.190;6.820;2022-12-07T04:22:35;49.60;;;36.80;;
10275;SDS011;5183;51.190;6.820;2022-12-07T04:25:02;47.07;;;38.10;;
10275;SDS011;5183;51.190;6.820;2022-12-07T04:27:30;49.47;;;37.00;;
10275;SDS011;5183;51.190;6.820;2022-12-07T04:29:56;46.57;;;36.17;;
10275;SDS011;5183;51.190;6.820;2022-12-07T04:32:23;44.13;;;35.33;;
10275;SDS011;5183;51.190;6.820;2022-12-07T04:34:52;50.00;;;36.13;;
10275;SDS011;5183;51.190;6.820;2022-12-07T04:37:18;56.13;;;37.10;;
10275;SDS011;5183;51.190;6.820;2022-12-07T04:39:45;44.77;;;35.50;;
10275;SDS011;5183;51.190;6.820;2022-12-07T04:42:12;50.10;;;36.17;;
10275;SDS011;5183;51.190;6.820;2022-12-07T04:44:39;42.90;;;34.03;;
10275;SDS011;5183;51.190;6.820;2022-12-07T04:47:06;46.10;;;35.30;;
10275;SDS011;5183;51.190;6.820;2022-12-07T04:49:33;47.30;;;34.33;;
10275;SDS011;5183;51.190;6.820;2022-12-07T04:52:01;45.73;;;33.07;;
10275;SDS011;5183;51.190;6.820;2022-12-07T04:54:28;46.50;;;33.83;;
10275;SDS011;5183;51.190;6.820;2022-12-07T04:56:55;46.53;;;33.17;;
10275;SDS011;5183;51.190;6.820;2022-12-07T04:59:22;39.93;;;32.20;;
10275;SDS011;5183;51.190;6.820;2022-12-07T05:01:49;40.20;;;32.10;;
10275;SDS011;5183;51.190;6.820;2022-12-07T05:04:16;42.03;;;30.80;;
10275;SDS011;5183;51.190;6.820;2022-12-07T05:06:43;37.80;;;30.43;;
10275;SDS011;5183;51.190;6.820;2022-12-07T05:09:11;38.33;;;31.07;;
10275;SDS011;5183;51.190;6.820;2022-12-07T05:11:38;36.73;;;29.37;;
10275;SDS011;5183;51.190;6.820;2022-12-07T05:14:06;35.73;;;29.40;;
10275;SDS011;5183;51.190;6.820;2022-12-07T05:16:35;34.83;;;28.40;;
10275;SDS011;5183;51.190;6.820;2022-12-07T05:19:02;36.43;;;27.67;;
10275;SDS011;5183;51.190;6.820;2022-12-07T05:21:30;36.90;;;28.67;;
10275;SDS011;5183;51.190;6.820;2022-12-07T05:23:57;37.90;;;27.07;;
10275;SDS011;5183;51.190;6.820;2022-12-07T05:26:25;36.20;;;27.40;;
10275;SDS011;5183;51.190;6.820;2022-12-07T05:28:52;37.67;;;27.77;;
10275;SDS011;5183;51.190;6.820;2022-12-07T05:31:20;33.27;;;26.57;;
10275;SDS011;5183;51.190;6.820;2022-12-07T05:33:47;36.30;;;25.60;;
10275;SDS011;5183;51.190;6.820;2022-12-07T05:36:14;39.63;;;26.33;;
10275;SDS011;5183;51.190;6.820;2022-12-07T05:38:41;31.10;;;24.93;;
10275;SDS011;5183;51.190;6.820;2022-12-07T05:41:08;32.67;;;23.83;;
10275;SDS011;5183;51.190;6.820;2022-12-07T05:43:54;31.43;;;23.67;;
10275;SDS011;5183;51.190;6.820;2022-12-07T05:46:21;29.33;;;22.83;;
10275;SDS011;5183;51.190;6.820;2022-12-07T05:48:48;29.73;;;22.47;;
10275;SDS011;5183;51.190;6.820;2022-12-07T05:51:15;30.37;;;22.07;;
10275;SDS011;5183;51.190;6.820;2022-12-07T05:53:42;28.27;;;21.77;;
10275;SDS011;5183;51.190;6.820;2022-12-07T05:56:09;30.57;;;21.73;;
10275;SDS011;5183;51.190;6.820;2022-12-07T05:58:36;30.00;;;22.50;;
10275;SDS011;5183;51.190;6.820;2022-12-07T06:01:21;33.37;;;23.20;;
10275;SDS011;5183;51.190;6.820;2022-12-07T06:03:48;32.03;;;23.20;;
10275;SDS011;5183;51.190;6.820;2022-12-07T06:06:15;27.77;;;21.60;;
10275;SDS011;5183;51.190;6.820;2022-12-07T06:08:41;32.43;;;21.60;;
10275;SDS011;5183;51.190;6.820;2022-12-07T06:11:08;32.53;;;22.17;;
10275;SDS011;5183;51.190;6.820;2022-12-07T06:13:53;26.07;;;20.90;;
10275;SDS011;5183;51.190;6.820;2022-12-07T06:16:19;27.73;;;20.83;;
10275;SDS011;5183;51.190;6.820;2022-12-07T06:18:48;27.27;;;20.90;;
10275;SDS011;5183;51.190;6.820;2022-12-07T06:21:14;29.77;;;21.70;;
10275;SDS011;5183;51.190;6.820;2022-12-07T06:23:41;26.13;;;21.20;;
10275;SDS011;5183;51.190;6.820;2022-12-07T06:26:08;30.07;;;21.10;;
10275;SDS011;5183;51.190;6.820;2022-12-07T06:28:35;25.53;;;20.33;;
10275;SDS011;5183;51.190;6.820;2022-12-07T06:31:02;28.73;;;21.67;;
10275;SDS011;5183;51.190;6.820;2022-12-07T06:33:30;27.37;;;22.37;;
10275;SDS011;5183;51.190;6.820;2022-12-07T06:35:57;29.87;;;22.67;;
10275;SDS011;5183;51.190;6.820;2022-12-07T06:38:24;26.37;;;22.73;;
10275;SDS011;5183;51.190;6.820;2022-12-07T06:40:51;28.07;;;22.97;;
10275;SDS011;5183;51.190;6.820;2022-12-07T06:43:18;30.10;;;23.23;;
10275;SDS011;5183;51.190;6.820;2022-12-07T06:45:44;31.53;;;23.83;;
10275;SDS011;5183;51.190;6.820;2022-12-07T06:48:11;31.03;;;24.53;;
10275;SDS011;5183;51.190;6.820;2022-12-07T06:50:39;33.40;;;23.80;;
10275;SDS011;5183;51.190;6.820;2022-12-07T06:53:07;26.83;;;23.30;;
10275;SDS011;5183;51.190;6.820;2022-12-07T06:55:35;29.50;;;24.40;;
10275;SDS011;5183;51.190;6.820;2022-12-07T06:58:02;30.47;;;24.10;;
10275;SDS011;5183;51.190;6.820;2022-12-07T07:00:29;32.97;;;25.10;;
10275;SDS011;5183;51.190;6.820;2022-12-07T07:02:56;33.87;;;25.20;;
10275;SDS011;5183;51.190;6.820;2022-12-07T07:05:23;31.33;;;24.47;;
10275;SDS011;5183;51.190;6.820;2022-12-07T07:07:51;27.40;;;24.23;;
10275;SDS011;5183;51.190;6.820;2022-12-07T07:10:18;27.73;;;22.70;;
10275;SDS011;5183;51.190;6.820;2022-12-07T07:12:45;31.10;;;23.23;;
10275;SDS011;5183;51.190;6.820;2022-12-07T07:15:11;29.67;;;24.07;;
10275;SDS011;5183;51.190;6.820;2022-12-07T07:17:38;28.30;;;23.37;;
10275;SDS011;5183;51.190;6.820;2022-12-07T07:20:05;33.67;;;24.03;;
10275;SDS011;5183;51.190;6.820;2022-12-07T07:22:33;31.30;;;23.17;;
10275;SDS011;5183;51.190;6.820;2022-12-07T07:25:01;27.83;;;22.87;;
10275;SDS011;5183;51.190;6.820;2022-12-07T07:27:28;31.13;;;23.73;;
10275;SDS011;5183;51.190;6.820;2022-12-07T07:29:55;31.00;;;23.20;;
10275;SDS011;5183;51.190;6.820;2022-12-07T07:32:22;33.10;;;22.37;;
10275;SDS011;5183;51.190;6.820;2022-12-07T07:34:49;28.20;;;22.33;;
10275;SDS011;5183;51.190;6.820;2022-12-07T07:37:15;30.97;;;22.30;;
10275;SDS011;5183;51.190;6.820;2022-12-07T07:39:42;29.97;;;22.10;;
10275;SDS011;5183;51.190;6.820;2022-12-07T07:42:10;28.13;;;21.97;;
10275;SDS011;5183;51.190;6.820;2022-12-07T07:44:37;28.97;;;22.77;;
10275;SDS011;5183;51.190;6.820;2022-12-07T07:47:04;26.67;;;22.00;;
10275;SDS011;5183;51.190;6.820;2022-12-07T07:49:31;31.57;;;24.10;;
10275;SDS011;5183;51.190;6.820;2022-12-07T07:51:58;28.33;;;21.63;;
10275;SDS011;5183;51.190;6.820;2022-12-07T07:54:24;29.02;;;23.17;;
10275;SDS011;5183;51.190;6.820;2022-12-07T07:56:51;27.27;;;21.63;;
10275;SDS011;5183;51.190;6.820;2022-12-07T07:59:20;26.63;;;21.37;;
10275;SDS011;5183;51.190;6.820;2022-12-07T08:01:47;25.73;;;20.57;;
10275;SDS011;5183;51.190;6.820;2022-12-07T08:04:14;24.13;;;19.43;;
10275;SDS011;5183;51.190;6.820;2022-12-07T08:06:41;23.47;;;18.13;;
10275;SDS011;5183;51.190;6.820;2022-12-07T08:09:08;22.40;;;17.97;;
10275;SDS011;5183;51.190;6.820;2022-12-07T08:11:35;23.93;;;18.27;;
10275;SDS011;5183;51.190;6.820;2022-12-07T08:14:02;25.27;;;19.53;;
10275;SDS011;5183;51.190;6.820;2022-12-07T08:16:31;22.80;;;18.00;;
10275;SDS011;5183;51.190;6.820;2022-12-07T08:18:58;26.40;;;19.20;;
10275;SDS011;5183;51.190;6.820;2022-12-07T08:21:24;28.07;;;18.60;;
10275;SDS011;5183;51.190;6.820;2022-12-07T08:23:51;26.40;;;20.17;;
10275;SDS011;5183;51.190;6.820;2022-12-07T08:26:18;25.80;;;19.17;;
10275;SDS011;5183;51.190;6.820;2022-12-07T08:28:45;27.80;;;20.00;;
10275;SDS011;5183;51.190;6.820;2022-12-07T08:31:12;25.70;;;19.17;;
10275;SDS011;5183;51.190;6.820;2022-12-07T08:33:44;24.50;;;18.07;;
10275;SDS011;5183;51.190;6.820;2022-12-07T08:36:11;25.87;;;18.83;;
10275;SDS011;5183;51.190;6.820;2022-12-07T08:38:40;22.57;;;17.90;;
10275;SDS011;5183;51.190;6.820;2022-12-07T08:41:07;20.00;;;17.47;;
10275;SDS011;5183;51.190;6.820;2022-12-07T08:43:35;22.98;;;18.88;;
10275;SDS011;5183;51.190;6.820;2022-12-07T08:46:04;21.07;;;16.73;;
10275;SDS011;5183;51.190;6.820;2022-12-07T08:48:38;20.37;;;16.47;;
10275;SDS011;5183;51.190;6.820;2022-12-07T08:51:08;21.10;;;15.30;;
10275;SDS011;5183;51.190;6.820;2022-12-07T08:53:36;20.43;;;15.63;;
10275;SDS011;5183;51.190;6.820;2022-12-07T08:56:04;19.70;;;15.83;;
10275;SDS011;5183;51.190;6.820;2022-12-07T08:58:34;19.93;;;14.87;;
10275;SDS011;5183;51.190;6.820;2022-12-07T09:01:03;17.80;;;15.53;;
10275;SDS011;5183;51.190;6.820;2022-12-07T09:03:30;18.33;;;14.77;;
10275;SDS011;5183;51.190;6.820;2022-12-07T09:05:57;19.83;;;14.90;;
10275;SDS011;5183;51.190;6.820;2022-12-07T09:08:26;17.53;;;15.73;;
10275;SDS011;5183;51.190;6.820;2022-12-07T09:10:57;18.77;;;15.90;;
10275;SDS011;5183;51.190;6.820;2022-12-07T09:13:24;22.63;;;16.60;;
10275;SDS011;5183;51.190;6.820;2022-12-07T09:15:50;20.27;;;18.13;;
10275;SDS011;5183;51.190;6.820;2022-12-07T09:18:17;18.80;;;15.97;;
10275;SDS011;5183;51.190;6.820;2022-12-07T09:20:44;21.27;;;17.13;;
10275;SDS011;5183;51.190;6.820;2022-12-07T09:23:11;21.37;;;15.77;;
10275;SDS011;5183;51.190;6.820;2022-12-07T09:25:39;25.93;;;17.00;;
10275;SDS011;5183;51.190;6.820;2022-12-07T09:28:06;18.77;;;15.60;;
10275;SDS011;5183;51.190;6.820;2022-12-07T09:30:33;22.15;;;16.13;;
10275;SDS011;5183;51.190;6.820;2022-12-07T09:33:00;18.40;;;15.90;;
10275;SDS011;5183;51.190;6.820;2022-12-07T09:35:27;19.50;;;15.17;;
10275;SDS011;5183;51.190;6.820;2022-12-07T09:37:54;20.67;;;15.43;;
10275;SDS011;5183;51.190;6.820;2022-12-07T09:40:22;15.20;;;13.60;;
10275;SDS011;5183;51.190;6.820;2022-12-07T09:42:51;19.47;;;14.30;;
10275;SDS011;5183;51.190;6.820;2022-12-07T09:45:21;19.63;;;14.13;;
10275;SDS011;5183;51.190;6.820;2022-12-07T09:47:50;16.60;;;13.97;;
10275;SDS011;5183;51.190;6.820;2022-12-07T09:50:19;17.70;;;14.07;;
10275;SDS011;5183;51.190;6.820;2022-12-07T09:52:48;20.43;;;13.87;;
10275;SDS011;5183;51.190;6.820;2022-12-07T09:55:16;18.83;;;13.60;;
10275;SDS011;5183;51.190;6.820;2022-12-07T09:57:50;20.53;;;13.90;;
10275;SDS011;5183;51.190;6.820;2022-12-07T10:00:19;15.40;;;13.30;;
10275;SDS011;5183;51.190;6.820;2022-12-07T10:02:49;18.40;;;14.90;;
10275;SDS011;5183;51.190;6.820;2022-12-07T10:05:20;17.27;;;13.87;;
10275;SDS011;5183;51.190;6.820;2022-12-07T10:07:49;19.17;;;13.60;;
10275;SDS011;5183;51.190;6.820;2022-12-07T10:10:17;18.40;;;13.67;;
10275;SDS011;5183;51.190;6.820;2022-12-07T10:12:57;17.27;;;13.93;;
10275;SDS011;5183;51.190;6.820;2022-12-07T10:15:42;17.02;;;13.55;;
10275;SDS011;5183;51.190;6.820;2022-12-07T10:18:25;20.17;;;13.40;;
10275;SDS011;5183;51.190;6.820;2022-12-07T10:21:00;14.57;;;12.63;;
10275;SDS011;5183;51.190;6.820;2022-12-07T10:23:36;16.55;;;13.40;;
10275;SDS011;5183;51.190;6.820;2022-12-07T10:26:20;18.50;;;12.73;;
10275;SDS011;5183;51.190;6.820;2022-12-07T10:29:03;17.85;;;13.23;;
10275;SDS011;5183;51.190;6.820;2022-12-07T10:31:41;17.10;;;12.77;;
10275;SDS011;5183;51.190;6.820;2022-12-07T10:34:14;16.73;;;12.37;;
10275;SDS011;5183;51.190;6.820;2022-12-07T10:36:49;18.03;;;12.73;;
10275;SDS011;5183;51.190;6.820;2022-12-07T10:39:17;17.13;;;12.50;;
10275;SDS011;5183;51.190;6.820;2022-12-07T10:41:54;16.47;;;11.20;;
10275;SDS011;5183;51.190;6.820;2022-12-07T10:44:25;18.70;;;10.90;;
10275;SDS011;5183;51.190;6.820;2022-12-07T10:47:08;17.77;;;11.27;;
10275;SDS011;5183;51.190;6.820;2022-12-07T10:50:17;16.50;;;12.07;;
10275;SDS011;5183;51.190;6.820;2022-12-07T10:53:14;18.40;;;10.97;;
10275;SDS011;5183;51.190;6.820;2022-12-07T10:56:02;17.53;;;10.67;;
10275;SDS011;5183;51.190;6.820;2022-12-07T10:58:47;13.93;;;9.60;;
10275;SDS011;5183;51.190;6.820;2022-12-07T11:01:24;15.27;;;9.87;;
10275;SDS011;5183;51.190;6.820;2022-12-07T11:04:04;13.87;;;9.90;;
10275;SDS011;5183;51.190;6.820;2022-12-07T11:06:45;13.90;;;8.90;;
10275;SDS011;5183;51.190;6.820;2022-12-07T11:12:15;13.77;;;8.43;;
10275;SDS011;5183;51.190;6.820;2022-12-07T11:14:48;11.53;;;7.80;;
10275;SDS011;5183;51.190;6.820;2022-12-07T11:17:23;16.20;;;7.57;;
10275;SDS011;5183;51.190;6.820;2022-12-07T11:20:01;11.93;;;6.90;;
10275;SDS011;5183;51.190;6.820;2022-12-07T11:22:40;8.47;;;6.67;;
10275;SDS011;5183;51.190;6.820;2022-12-07T11:25:15;15.50;;;7.73;;
10275;SDS011;5183;51.190;6.820;2022-12-07T11:27:48;13.80;;;7.10;;
10275;SDS011;5183;51.190;6.820;2022-12-07T11:30:27;9.93;;;7.23;;
10275;SDS011;5183;51.190;6.820;2022-12-07T11:33:04;12.73;;;8.05;;
10275;SDS011;5183;51.190;6.820;2022-12-07T11:35:46;14.60;;;7.73;;
10275;SDS011;5183;51.190;6.820;2022-12-07T11:38:32;13.87;;;7.70;;
10275;SDS011;5183;51.190;6.820;2022-12-07T11:41:04;10.83;;;7.57;;
10275;SDS011;5183;51.190;6.820;2022-12-07T11:46:35;11.80;;;6.80;;
10275;SDS011;5183;51.190;6.820;2022-12-07T11:49:15;11.20;;;6.83;;
10275;SDS011;5183;51.190;6.820;2022-12-07T11:51:47;13.73;;;7.30;;
10275;SDS011;5183;51.190;6.820;2022-12-07T11:54:18;11.97;;;6.07;;
10275;SDS011;5183;51.190;6.820;2022-12-07T11:56:48;11.43;;;6.80;;
10275;SDS011;5183;51.190;6.820;2022-12-07T11:59:17;12.30;;;7.47;;
10275;SDS011;5183;51.190;6.820;2022-12-07T12:01:51;11.50;;;8.25;;
10275;SDS011;5183;51.190;6.820;2022-12-07T12:04:25;12.27;;;8.10;;
10275;SDS011;5183;51.190;6.820;2022-12-07T12:06:57;12.97;;;7.77;;
10275;SDS011;5183;51.190;6.820;2022-12-07T12:09:25;12.30;;;8.97;;
10275;SDS011;5183;51.190;6.820;2022-12-07T12:12:01;16.73;;;9.43;;
10275;SDS011;5183;51.190;6.820;2022-12-07T12:14:45;17.20;;;11.00;;
10275;SDS011;5183;51.190;6.820;2022-12-07T12:17:22;15.33;;;11.33;;
10275;SDS011;5183;51.190;6.820;2022-12-07T12:20:05;15.13;;;11.60;;
10275;SDS011;5183;51.190;6.820;2022-12-07T12:22:42;15.77;;;11.40;;
10275;SDS011;5183;51.190;6.820;2022-12-07T12:25:15;18.83;;;10.97;;
10275;SDS011;5183;51.190;6.820;2022-12-07T12:27:47;11.43;;;8.47;;
10275;SDS011;5183;51.190;6.820;2022-12-07T12:30:28;10.43;;;7.75;;
10275;SDS011;5183;51.190;6.820;2022-12-07T12:33:01;10.80;;;7.67;;
10275;SDS011;5183;51.190;6.820;2022-12-07T12:35:35;11.07;;;7.47;;
10275;SDS011;5183;51.190;6.820;2022-12-07T12:40:55;10.33;;;6.00;;
10275;SDS011;5183;51.190;6.820;2022-12-07T12:43:45;8.13;;;6.23;;
10275;SDS011;5183;51.190;6.820;2022-12-07T12:55:16;12.95;;;7.47;;
10275;SDS011;5183;51.190;6.820;2022-12-07T12:58:28;9.67;;;6.43;;
10275;SDS011;5183;51.190;6.820;2022-12-07T13:04:12;9.60;;;5.30;;
10275;SDS011;5183;51.190;6.820;2022-12-07T13:06:48;9.77;;;5.30;;
10275;SDS011;5183;51.190;6.820;2022-12-07T13:09:19;9.23;;;5.83;;
10275;SDS011;5183;51.190;6.820;2022-12-07T13:11:54;10.07;;;5.70;;
10275;SDS011;5183;51.190;6.820;2022-12-07T13:20:46;9.47;;;5.83;;
10275;SDS011;5183;51.190;6.820;2022-12-07T13:23:16;9.10;;;5.93;;
10275;SDS011;5183;51.190;6.820;2022-12-07T13:25:59;8.57;;;5.83;;
10275;SDS011;5183;51.190;6.820;2022-12-07T13:28:35;9.27;;;6.03;;
10275;SDS011;5183;51.190;6.820;2022-12-07T13:34:00;11.77;;;6.13;;
10275;SDS011;5183;51.190;6.820;2022-12-07T13:36:29;8.87;;;5.40;;
10275;SDS011;5183;51.190;6.820;2022-12-07T13:39:10;10.53;;;5.30;;
10275;SDS011;5183;51.190;6.820;2022-12-07T13:41:42;15.07;;;5.73;;
10275;SDS011;5183;51.190;6.820;2022-12-07T13:44:12;10.53;;;5.97;;
10275;SDS011;5183;51.190;6.820;2022-12-07T13:46:43;10.27;;;5.77;;
10275;SDS011;5183;51.190;6.820;2022-12-07T13:49:18;9.73;;;6.00;;
10275;SDS011;5183;51.190;6.820;2022-12-07T13:51:47;15.37;;;6.37;;
10275;SDS011;5183;51.190;6.820;2022-12-07T13:54:14;15.53;;;5.63;;
10275;SDS011;5183;51.190;6.820;2022-12-07T13:56:42;8.53;;;5.63;;
10275;SDS011;5183;51.190;6.820;2022-12-07T13:59:17;12.73;;;6.47;;
10275;SDS011;5183;51.190;6.820;2022-12-07T14:01:46;12.18;;;6.65;;
10275;SDS011;5183;51.190;6.820;2022-12-07T14:04:31;11.57;;;5.87;;
10275;SDS011;5183;51.190;6.820;2022-12-07T14:07:00;10.20;;;5.10;;
10275;SDS011;5183;51.190;6.820;2022-12-07T14:09:52;6.13;;;4.30;;
10275;SDS011;5183;51.190;6.820;2022-12-07T14:12:20;8.27;;;4.37;;
10275;SDS011;5183;51.190;6.820;2022-12-07T14:14:49;8.83;;;4.23;;
10275;SDS011;5183;51.190;6.820;2022-12-07T14:17:17;6.77;;;4.13;;
10275;SDS011;5183;51.190;6.820;2022-12-07T14:19:54;8.50;;;4.07;;
10275;SDS011;5183;51.190;6.820;2022-12-07T14:22:26;9.40;;;4.60;;
10275;SDS011;5183;51.190;6.820;2022-12-07T14:25:14;7.20;;;4.50;;
10275;SDS011;5183;51.190;6.820;2022-12-07T14:27:47;7.90;;;4.37;;
10275;SDS011;5183;51.190;6.820;2022-12-07T14:30:19;7.50;;;4.63;;
10275;SDS011;5183;51.190;6.820;2022-12-07T14:32:46;9.17;;;5.03;;
10275;SDS011;5183;51.190;6.820;2022-12-07T14:35:17;11.57;;;6.07;;
10275;SDS011;5183;51.190;6.820;2022-12-07T14:37:45;11.73;;;5.67;;
10275;SDS011;5183;51.190;6.820;2022-12-07T14:40:13;8.37;;;5.90;;
10275;SDS011;5183;51.190;6.820;2022-12-07T14:42:42;11.07;;;5.00;;
10275;SDS011;5183;51.190;6.820;2022-12-07T14:45:13;8.23;;;5.27;;
10275;SDS011;5183;51.190;6.820;2022-12-07T14:47:43;10.73;;;5.20;;
10275;SDS011;5183;51.190;6.820;2022-12-07T14:50:11;11.17;;;5.53;;
10275;SDS011;5183;51.190;6.820;2022-12-07T14:52:40;8.23;;;5.33;;
10275;SDS011;5183;51.190;6.820;2022-12-07T14:55:12;8.20;;;5.27;;
10275;SDS011;5183;51.190;6.820;2022-12-07T14:57:42;9.63;;;5.20;;
10275;SDS011;5183;51.190;6.820;2022-12-07T15:00:13;11.67;;;6.50;;
10275;SDS011;5183;51.190;6.820;2022-12-07T15:02:43;13.70;;;7.80;;
10275;SDS011;5183;51.190;6.820;2022-12-07T15:05:10;10.83;;;5.57;;
10275;SDS011;5183;51.190;6.820;2022-12-07T15:07:38;8.93;;;5.77;;
10275;SDS011;5183;51.190;6.820;2022-12-07T15:10:09;9.40;;;5.40;;
10275;SDS011;5183;51.190;6.820;2022-12-07T15:12:42;11.33;;;6.43;;
10275;SDS011;5183;51.190;6.820;2022-12-07T15:15:09;20.53;;;5.93;;
10275;SDS011;5183;51.190;6.820;2022-12-07T15:17:36;10.67;;;5.80;;
10275;SDS011;5183;51.190;6.820;2022-12-07T15:20:05;10.30;;;5.27;;
10275;SDS011;5183;51.190;6.820;2022-12-07T15:22:36;10.33;;;6.07;;
10275;SDS011;5183;51.190;6.820;2022-12-07T15:25:03;12.37;;;7.37;;
10275;SDS011;5183;51.190;6.820;2022-12-07T15:27:31;13.23;;;7.97;;
10275;SDS011;5183;51.190;6.820;2022-12-07T15:29:58;12.93;;;7.80;;
10275;SDS011;5183;51.190;6.820;2022-12-07T15:32:25;13.37;;;7.93;;